createdAt,value
2022-10-10T00:00:50.021Z,6.38
2022-10-10T00:03:18.498Z,6.13
2022-10-10T00:05:47.818Z,5.57
2022-10-10T00:08:15.516Z,7.50
2022-10-10T00:10:43.267Z,5.88
2022-10-10T00:13:11.013Z,6.95
2022-10-10T00:15:38.831Z,4.72
2022-10-10T00:18:06.644Z,6.38
2022-10-10T00:20:34.319Z,5.63
2022-10-10T00:23:03.367Z,7.30
2022-10-10T00:25:31.207Z,7.10
2022-10-10T00:28:02.031Z,4.30
2022-10-10T00:30:29.819Z,5.35
2022-10-10T00:32:59.450Z,7.18
2022-10-10T00:35:27.859Z,4.28
2022-10-10T00:37:55.650Z,12.93
2022-10-10T00:40:25.787Z,6.82
2022-10-10T00:42:53.887Z,8.70
2022-10-10T00:45:29.896Z,4.15
2022-10-10T00:48:01.771Z,4.75
2022-10-10T00:50:35.409Z,5.05
2022-10-10T00:53:06.099Z,4.60
2022-10-10T00:55:36.721Z,3.90
2022-10-10T00:58:05.689Z,3.88
2022-10-10T01:00:33.524Z,7.43
2022-10-10T01:03:01.299Z,7.85
2022-10-10T01:05:29.195Z,6.43
2022-10-10T01:07:57.268Z,4.88
2022-10-10T01:10:25.327Z,4.18
2022-10-10T01:13:08.591Z,4.63
2022-10-10T01:15:47.414Z,3.50
2022-10-10T01:18:25.340Z,5.32
2022-10-10T01:21:14.463Z,5.20
2022-10-10T01:24:11.728Z,3.95
2022-10-10T01:26:59.011Z,3.45
2022-10-10T01:29:32.425Z,4.22
2022-10-10T01:32:06.382Z,5.75
2022-10-10T01:34:42.461Z,3.92
2022-10-10T01:37:18.066Z,3.78
2022-10-10T01:39:56.226Z,3.85
2022-10-10T01:42:29.544Z,4.90
2022-10-10T01:44:59.219Z,3.42
2022-10-10T01:47:27.012Z,5.82
2022-10-10T01:49:58.934Z,4.57
2022-10-10T01:52:43.674Z,3.88
2022-10-10T01:55:29.563Z,3.65
2022-10-10T01:58:10.828Z,3.90
2022-10-10T02:00:49.867Z,4.35
2022-10-10T02:03:21.539Z,6.85
2022-10-10T02:05:56.158Z,5.60
2022-10-10T02:08:30.371Z,5.00
2022-10-10T02:11:01.567Z,4.07
2022-10-10T02:13:36.275Z,3.92
2022-10-10T02:16:10.124Z,4.57
2022-10-10T02:18:38.426Z,3.63
2022-10-10T02:21:09.529Z,4.97
2022-10-10T02:23:38.017Z,4.53
2022-10-10T02:26:05.793Z,4.45
2022-10-10T02:28:40.961Z,5.15
2022-10-10T02:31:13.765Z,4.38
2022-10-10T02:33:49.441Z,3.28
2022-10-10T02:36:19.857Z,3.53
2022-10-10T02:38:48.907Z,3.00
2022-10-10T02:41:19.447Z,7.28
2022-10-10T02:43:48.852Z,4.45
2022-10-10T02:46:18.363Z,4.05
2022-10-10T02:48:46.113Z,4.60
2022-10-10T02:51:16.837Z,4.78
2022-10-10T02:53:44.602Z,3.13
2022-10-10T02:56:12.511Z,6.82
2022-10-10T02:58:40.234Z,4.00
2022-10-10T03:01:07.897Z,3.65
2022-10-10T03:03:37.106Z,4.10
2022-10-10T03:06:05.157Z,11.85
2022-10-10T03:08:33.238Z,9.95
2022-10-10T03:11:02.469Z,3.75
2022-10-10T03:13:30.575Z,4.05
2022-10-10T03:15:58.372Z,3.88
2022-10-10T03:18:26.122Z,6.50
2022-10-10T03:20:56.937Z,4.55
2022-10-10T03:23:25.751Z,3.63
2022-10-10T03:25:53.489Z,3.90
2022-10-10T03:28:21.578Z,6.40
2022-10-10T03:30:49.831Z,4.55
2022-10-10T03:33:17.498Z,5.15
2022-10-10T03:35:45.356Z,3.85
2022-10-10T03:38:14.856Z,7.22
2022-10-10T03:40:44.301Z,6.10
2022-10-10T03:43:14.012Z,5.22
2022-10-10T03:45:44.232Z,4.25
2022-10-10T03:48:12.809Z,3.55
2022-10-10T03:50:40.521Z,5.95
2022-10-10T03:53:08.468Z,5.82
2022-10-10T03:55:40.816Z,7.22
2022-10-10T03:58:08.603Z,4.18
2022-10-10T04:00:36.748Z,6.15
2022-10-10T04:03:06.324Z,5.25
2022-10-10T04:05:35.304Z,6.03
2022-10-10T04:08:03.233Z,6.60
2022-10-10T04:10:34.188Z,4.70
2022-10-10T04:13:03.327Z,4.13
2022-10-10T04:15:31.755Z,4.65
2022-10-10T04:17:59.480Z,4.40
2022-10-10T04:20:28.141Z,4.68
2022-10-10T04:22:55.903Z,4.63
2022-10-10T04:25:23.855Z,5.65
2022-10-10T04:27:51.619Z,4.50
2022-10-10T04:30:21.028Z,5.10
2022-10-10T04:32:49.079Z,5.88
2022-10-10T04:35:17.002Z,7.72
2022-10-10T04:37:45.692Z,4.82
2022-10-10T04:40:13.458Z,4.88
2022-10-10T04:42:41.200Z,3.97
2022-10-10T04:45:09.930Z,5.05
2022-10-10T04:47:39.002Z,4.65
2022-10-10T04:50:07.887Z,4.57
2022-10-10T04:52:35.700Z,4.35
2022-10-10T04:55:03.456Z,5.80
2022-10-10T04:57:34.075Z,5.50
2022-10-10T05:00:01.947Z,5.10
2022-10-10T05:02:29.745Z,5.75
2022-10-10T05:04:58.976Z,7.22
2022-10-10T05:07:30.950Z,4.63
2022-10-10T05:09:58.786Z,6.35
2022-10-10T05:12:26.824Z,5.80
2022-10-10T05:14:54.628Z,6.10
2022-10-10T05:17:22.408Z,6.45
2022-10-10T05:19:51.563Z,6.18
2022-10-10T05:22:20.661Z,6.05
2022-10-10T05:24:48.367Z,6.15
2022-10-10T05:27:16.118Z,5.53
2022-10-10T05:29:43.751Z,6.40
2022-10-10T05:32:11.646Z,7.32
2022-10-10T05:34:39.424Z,4.70
2022-10-10T05:37:07.207Z,8.30
2022-10-10T05:39:36.455Z,6.00
2022-10-10T05:42:04.918Z,7.00
2022-10-10T05:44:34.969Z,6.50
2022-10-10T05:47:04.361Z,10.18
2022-10-10T05:49:32.307Z,8.40
2022-10-10T05:52:00.207Z,6.53
2022-10-10T05:54:28.298Z,8.70
2022-10-10T05:56:57.431Z,6.47
2022-10-10T05:59:25.349Z,7.78
2022-10-10T06:01:53.694Z,9.32
2022-10-10T06:04:21.515Z,6.88
2022-10-10T06:06:49.316Z,9.05
2022-10-10T06:09:17.388Z,6.82
2022-10-10T06:11:45.244Z,7.65
2022-10-10T06:14:14.411Z,7.82
2022-10-10T06:16:45.185Z,7.50
2022-10-10T06:19:15.045Z,7.25
2022-10-10T06:21:43.038Z,7.03
2022-10-10T06:24:11.724Z,8.10
2022-10-10T06:26:39.610Z,8.45
2022-10-10T06:29:07.484Z,9.10
2022-10-10T06:31:39.367Z,9.20
2022-10-10T06:34:07.374Z,10.77
2022-10-10T06:36:35.201Z,9.82
2022-10-10T06:39:02.962Z,9.98
2022-10-10T06:41:35.194Z,9.15
2022-10-10T06:44:02.885Z,10.95
2022-10-10T06:46:30.796Z,10.70
2022-10-10T06:49:00.177Z,10.05
2022-10-10T06:51:27.955Z,12.30
2022-10-10T06:53:57.872Z,9.70
2022-10-10T06:56:28.777Z,13.68
2022-10-10T06:59:02.299Z,16.90
2022-10-10T07:01:31.725Z,12.88
2022-10-10T07:04:00.799Z,11.25
2022-10-10T07:06:32.518Z,12.40
2022-10-10T07:09:02.398Z,10.35
2022-10-10T07:11:30.253Z,8.63
2022-10-10T07:13:58.080Z,10.45
2022-10-10T07:16:25.975Z,11.00
2022-10-10T07:18:53.702Z,9.05
2022-10-10T07:21:22.897Z,11.32
2022-10-10T07:23:50.674Z,8.52
2022-10-10T07:26:22.093Z,9.68
2022-10-10T07:28:49.994Z,10.55
2022-10-10T07:31:17.771Z,10.18
2022-10-10T07:33:50.509Z,8.98
2022-10-10T07:36:19.576Z,12.00
2022-10-10T07:38:52.917Z,11.68
2022-10-10T07:41:22.971Z,7.95
2022-10-10T07:43:55.180Z,12.85
2022-10-10T07:46:22.966Z,7.93
2022-10-10T07:48:50.665Z,12.30
2022-10-10T07:51:19.092Z,12.98
2022-10-10T07:53:47.769Z,13.65
2022-10-10T07:56:16.905Z,15.23
2022-10-10T07:58:44.615Z,17.55
2022-10-10T08:01:14.154Z,13.93
2022-10-10T08:03:42.420Z,19.58
2022-10-10T08:06:12.130Z,16.85
2022-10-10T08:08:50.047Z,12.32
2022-10-10T08:11:20.550Z,17.15
2022-10-10T08:13:48.480Z,13.73
2022-10-10T08:16:16.920Z,17.92
2022-10-10T08:18:44.754Z,16.65
2022-10-10T08:21:14.549Z,17.88
2022-10-10T08:23:42.813Z,19.10
2022-10-10T08:26:12.649Z,17.52
2022-10-10T08:28:44.709Z,15.35
2022-10-10T08:31:14.996Z,19.33
2022-10-10T08:33:45.838Z,17.48
2022-10-10T08:36:20.265Z,16.17
2022-10-10T08:38:48.525Z,15.43
2022-10-10T08:41:33.012Z,17.92
2022-10-10T08:44:06.457Z,17.50
2022-10-10T08:46:42.276Z,19.15
2022-10-10T08:49:20.431Z,15.63
2022-10-10T08:51:55.644Z,16.48
2022-10-10T08:54:27.014Z,15.70
2022-10-10T08:56:59.668Z,16.27
2022-10-10T08:59:35.055Z,15.25
2022-10-10T09:02:26.334Z,16.35
2022-10-10T09:05:01.530Z,21.52
2022-10-10T09:07:45.080Z,19.52
2022-10-10T09:10:24.166Z,24.75
2022-10-10T09:13:02.935Z,20.95
2022-10-10T09:15:36.251Z,19.60
2022-10-10T09:18:14.666Z,16.27
2022-10-10T09:20:49.849Z,17.38
2022-10-10T09:23:23.290Z,14.45
2022-10-10T09:25:57.184Z,16.02
2022-10-10T09:28:36.662Z,19.02
2022-10-10T09:31:09.614Z,15.52
2022-10-10T09:33:41.410Z,14.65
2022-10-10T09:36:17.598Z,16.02
2022-10-10T09:38:50.322Z,16.30
2022-10-10T09:41:24.840Z,15.00
2022-10-10T09:44:00.004Z,12.30
2022-10-10T09:46:33.248Z,14.80
2022-10-10T09:49:01.648Z,12.82
2022-10-10T09:51:33.910Z,13.70
2022-10-10T09:54:03.536Z,14.27
2022-10-10T09:56:41.035Z,14.77
2022-10-10T09:59:49.430Z,18.27
2022-10-10T10:02:28.261Z,16.88
2022-10-10T10:05:16.944Z,11.45
2022-10-10T10:07:53.729Z,9.52
2022-10-10T10:10:44.633Z,12.77
2022-10-10T10:13:23.119Z,9.50
2022-10-10T10:16:16.159Z,10.32
2022-10-10T10:19:04.270Z,9.18
2022-10-10T10:22:01.766Z,8.32
2022-10-10T10:25:09.858Z,13.38
2022-10-10T10:27:39.627Z,8.63
2022-10-10T10:30:25.351Z,10.40
2022-10-10T10:33:11.044Z,10.88
2022-10-10T10:35:46.748Z,8.68
2022-10-10T10:38:37.516Z,9.98
2022-10-10T10:41:41.895Z,9.85
2022-10-10T10:44:38.813Z,10.75
2022-10-10T10:47:27.767Z,10.88
2022-10-10T10:50:20.225Z,13.18
2022-10-10T10:53:13.429Z,12.60
2022-10-10T10:56:21.967Z,11.27
2022-10-10T11:00:16.572Z,11.68
2022-10-10T11:02:01.944Z,13.02
2022-10-10T11:05:18.901Z,6.80
2022-10-10T11:08:20.019Z,15.85
2022-10-10T11:11:29.783Z,12.93
2022-10-10T11:14:20.241Z,18.00
2022-10-10T11:17:43.180Z,11.95
2022-10-10T11:20:03.449Z,11.43
2022-10-10T11:22:55.969Z,13.13
2022-10-10T11:25:27.834Z,15.38
2022-10-10T11:28:01.183Z,12.55
2022-10-10T11:30:32.626Z,15.15
2022-10-10T11:33:06.764Z,14.35
2022-10-10T11:35:37.898Z,12.50
2022-10-10T11:38:14.161Z,12.07
2022-10-10T11:40:49.464Z,14.18
2022-10-10T11:43:26.516Z,13.15
2022-10-10T11:46:03.260Z,14.57
2022-10-10T11:48:43.603Z,10.38
2022-10-10T11:51:25.923Z,15.65
2022-10-10T11:54:00.583Z,10.98
2022-10-10T11:56:34.335Z,11.10
2022-10-10T11:59:09.219Z,11.02
2022-10-10T12:01:42.175Z,9.95
2022-10-10T12:04:10.046Z,17.08
2022-10-10T12:06:41.896Z,11.25
2022-10-10T12:09:17.483Z,10.60
2022-10-10T12:11:52.603Z,11.25
2022-10-10T12:14:24.125Z,10.27
2022-10-10T12:16:53.026Z,10.17
2022-10-10T12:19:22.946Z,7.07
2022-10-10T12:21:57.272Z,8.98
2022-10-10T12:24:28.996Z,11.18
2022-10-10T12:27:28.963Z,9.57
2022-10-10T12:30:18.905Z,8.05
2022-10-10T12:32:47.340Z,12.80
2022-10-10T12:35:40.376Z,11.00
2022-10-10T12:38:17.816Z,10.23
2022-10-10T12:41:20.222Z,10.90
2022-10-10T12:44:12.374Z,7.88
2022-10-10T12:46:40.527Z,12.52
2022-10-10T12:49:21.334Z,12.75
2022-10-10T12:52:21.650Z,12.32
2022-10-10T12:54:51.467Z,10.18
2022-10-10T12:57:28.474Z,12.70
2022-10-10T13:00:01.187Z,10.55
2022-10-10T13:02:29.966Z,11.63
2022-10-10T13:05:02.307Z,10.57
2022-10-10T13:10:08.834Z,10.15
2022-10-10T13:12:38.031Z,10.70
2022-10-10T13:15:20.084Z,10.65
2022-10-10T13:17:47.847Z,9.95
2022-10-10T13:20:29.856Z,11.20
2022-10-10T13:22:58.663Z,11.38
2022-10-10T13:25:27.439Z,10.02
2022-10-10T13:27:56.686Z,10.30
2022-10-10T13:30:26.491Z,10.57
2022-10-10T13:32:55.996Z,9.18
2022-10-10T13:35:26.144Z,9.00
2022-10-10T13:37:57.308Z,9.48
2022-10-10T13:40:26.561Z,7.88
2022-10-10T13:42:56.489Z,8.45
2022-10-10T13:45:32.080Z,9.18
2022-10-10T13:48:17.276Z,8.93
2022-10-10T13:50:56.793Z,10.18
2022-10-10T13:53:32.412Z,9.70
2022-10-10T13:56:05.571Z,8.20
2022-10-10T13:58:41.950Z,9.65
2022-10-10T14:01:29.498Z,9.95
2022-10-10T14:04:01.111Z,9.48
2022-10-10T14:06:29.949Z,8.47
2022-10-10T14:09:04.789Z,11.30
2022-10-10T14:11:34.806Z,8.20
2022-10-10T14:14:09.181Z,9.50
2022-10-10T14:16:36.865Z,7.82
2022-10-10T14:19:04.688Z,13.75
2022-10-10T14:21:32.577Z,12.32
2022-10-10T14:24:00.275Z,12.18
2022-10-10T14:26:28.051Z,8.55
2022-10-10T14:28:55.936Z,9.68
2022-10-10T14:31:28.711Z,7.53
2022-10-10T14:33:56.709Z,7.05
2022-10-10T14:36:24.466Z,8.13
2022-10-10T14:38:52.478Z,7.72
2022-10-10T14:41:20.184Z,6.53
2022-10-10T14:43:47.913Z,10.88
2022-10-10T14:46:19.623Z,6.78
2022-10-10T14:48:48.859Z,10.13
2022-10-10T14:51:34.911Z,9.15
2022-10-10T14:54:10.982Z,8.02
2022-10-10T14:57:09.062Z,9.95
2022-10-10T14:59:47.377Z,6.13
2022-10-10T15:02:16.642Z,6.28
2022-10-10T15:04:45.970Z,6.80
2022-10-10T15:07:15.178Z,9.68
2022-10-10T15:10:02.484Z,9.25
2022-10-10T15:12:30.741Z,10.55
2022-10-10T15:14:58.691Z,18.98
2022-10-10T15:17:27.238Z,20.63
2022-10-10T15:19:56.439Z,10.07
2022-10-10T15:22:24.282Z,9.35
2022-10-10T15:24:52.017Z,8.88
2022-10-10T15:27:20.026Z,10.93
2022-10-10T15:29:49.424Z,10.48
2022-10-10T15:32:17.344Z,13.75
2022-10-10T15:34:45.157Z,11.65
2022-10-10T15:37:15.419Z,9.93
2022-10-10T15:39:44.715Z,8.20
2022-10-10T15:42:16.290Z,11.10
2022-10-10T15:44:48.021Z,11.60
2022-10-10T15:47:17.697Z,10.13
2022-10-10T15:49:45.615Z,10.65
2022-10-10T15:52:18.686Z,10.85
2022-10-10T15:54:49.317Z,12.25
2022-10-10T15:57:20.765Z,9.45
2022-10-10T15:59:48.684Z,8.38
2022-10-10T16:02:17.151Z,10.82
2022-10-10T16:04:46.105Z,11.27
2022-10-10T16:07:28.628Z,10.95
2022-10-10T16:09:57.864Z,7.20
2022-10-10T16:12:25.796Z,8.70
2022-10-10T16:14:53.604Z,8.73
2022-10-10T16:17:30.495Z,11.52
2022-10-10T16:19:58.250Z,10.40
2022-10-10T16:22:27.343Z,9.57
2022-10-10T16:27:43.922Z,9.65
2022-10-10T16:30:12.696Z,12.07
2022-10-10T16:32:42.641Z,9.15
2022-10-10T16:35:11.372Z,10.43
2022-10-10T16:37:40.510Z,11.63
2022-10-10T16:40:09.243Z,11.43
2022-10-10T16:42:37.102Z,11.13
2022-10-10T16:45:05.532Z,12.07
2022-10-10T16:47:33.320Z,9.63
2022-10-10T16:50:03.626Z,9.50
2022-10-10T16:52:33.170Z,9.73
2022-10-10T16:55:02.445Z,7.70
2022-10-10T16:57:30.609Z,5.43
2022-10-10T16:59:58.631Z,5.85
2022-10-10T17:02:26.383Z,4.47
2022-10-10T17:04:54.168Z,3.60
2022-10-10T17:07:21.863Z,2.88
2022-10-10T17:09:49.676Z,3.78
2022-10-10T17:12:19.415Z,3.75
2022-10-10T17:14:47.213Z,5.38
2022-10-10T17:17:14.982Z,5.05
2022-10-10T17:19:42.845Z,7.78
2022-10-10T17:22:10.694Z,8.30
2022-10-10T17:24:38.484Z,9.77
2022-10-10T17:27:06.402Z,6.28
2022-10-10T17:29:35.551Z,8.10
2022-10-10T17:32:06.474Z,6.63
2022-10-10T17:34:35.337Z,9.05
2022-10-10T17:37:03.879Z,8.73
2022-10-10T17:39:32.832Z,10.05
2022-10-10T17:42:01.044Z,10.02
2022-10-10T17:44:29.105Z,9.50
2022-10-10T17:46:58.359Z,10.50
2022-10-10T17:49:26.467Z,10.00
2022-10-10T17:51:54.472Z,7.82
2022-10-10T17:54:23.462Z,6.93
2022-10-10T17:56:56.029Z,7.00
2022-10-10T17:59:23.936Z,6.95
2022-10-10T18:02:03.435Z,8.63
2022-10-10T18:04:36.106Z,8.10
2022-10-10T18:07:04.085Z,7.25
2022-10-10T18:09:31.994Z,8.45
2022-10-10T18:11:59.943Z,12.85
2022-10-10T18:14:27.810Z,8.63
2022-10-10T18:16:55.906Z,9.27
2022-10-10T18:19:23.731Z,7.68
2022-10-10T18:21:52.998Z,9.00
2022-10-10T18:24:20.973Z,10.27
2022-10-10T18:26:52.579Z,9.90
2022-10-10T18:29:22.485Z,10.40
2022-10-10T18:31:52.533Z,12.48
2022-10-10T18:34:20.451Z,11.40
2022-10-10T18:36:50.230Z,10.98
2022-10-10T18:39:19.953Z,11.35
2022-10-10T18:41:47.969Z,13.13
2022-10-10T18:44:17.722Z,9.82
2022-10-10T18:46:46.208Z,12.68
2022-10-10T18:49:14.848Z,10.48
2022-10-10T18:51:43.689Z,8.25
2022-10-10T18:54:22.779Z,9.80
2022-10-10T18:56:50.607Z,12.05
2022-10-10T18:59:22.144Z,10.20
2022-10-10T19:01:52.305Z,8.43
2022-10-10T19:04:21.716Z,12.20
2022-10-10T19:06:54.683Z,10.55
2022-10-10T19:09:27.200Z,11.88
2022-10-10T19:11:55.286Z,12.55
2022-10-10T19:14:23.230Z,14.57
2022-10-10T19:16:51.215Z,13.30
2022-10-10T19:19:20.346Z,8.38
2022-10-10T19:21:54.586Z,12.45
2022-10-10T19:24:22.589Z,13.30
2022-10-10T19:26:54.798Z,13.05
2022-10-10T19:29:23.327Z,11.55
2022-10-10T19:31:51.612Z,11.75
2022-10-10T19:34:19.515Z,15.02
2022-10-10T19:36:47.303Z,11.70
2022-10-10T19:39:15.251Z,10.57
2022-10-10T19:41:43.106Z,12.40
2022-10-10T19:44:12.336Z,11.45
2022-10-10T19:46:40.389Z,11.95
2022-10-10T19:49:08.391Z,14.77
2022-10-10T19:51:36.164Z,14.95
2022-10-10T19:54:04.060Z,9.63
2022-10-10T19:56:31.994Z,13.98
2022-10-10T19:59:04.249Z,15.82
2022-10-10T20:01:34.040Z,16.00
2022-10-10T20:04:04.177Z,12.15
2022-10-10T20:06:33.365Z,12.88
2022-10-10T20:09:01.366Z,13.23
2022-10-10T20:11:29.355Z,11.98
2022-10-10T20:13:58.443Z,16.00
2022-10-10T20:16:27.698Z,12.85
2022-10-10T20:18:59.105Z,9.40
2022-10-10T20:21:31.754Z,12.52
2022-10-10T20:24:00.288Z,13.40
2022-10-10T20:26:28.630Z,11.85
2022-10-10T20:28:58.082Z,14.23
2022-10-10T20:31:27.760Z,12.55
2022-10-10T20:34:04.121Z,8.30
2022-10-10T20:36:41.073Z,12.25
2022-10-10T20:39:12.680Z,14.40
2022-10-10T20:41:41.780Z,15.43
2022-10-10T20:44:12.630Z,14.05
2022-10-10T20:46:42.988Z,13.30
2022-10-10T20:49:14.057Z,11.98
2022-10-10T20:51:48.333Z,14.68
2022-10-10T20:54:17.727Z,20.42
2022-10-10T20:56:45.689Z,13.70
2022-10-10T20:59:13.786Z,16.50
2022-10-10T21:01:45.137Z,16.80
2022-10-10T21:04:13.986Z,11.43
2022-10-10T21:06:44.026Z,14.38
2022-10-10T21:09:14.026Z,12.50
2022-10-10T21:11:42.506Z,14.55
2022-10-10T21:14:11.863Z,16.00
2022-10-10T21:16:41.791Z,22.38
2022-10-10T21:19:12.248Z,18.50
2022-10-10T21:21:40.563Z,15.88
2022-10-10T21:24:12.202Z,14.13
2022-10-10T21:26:40.869Z,14.73
2022-10-10T21:29:08.833Z,16.33
2022-10-10T21:31:38.459Z,14.75
2022-10-10T21:34:08.406Z,12.60
2022-10-10T21:36:37.407Z,14.80
2022-10-10T21:39:06.905Z,17.08
2022-10-10T21:41:37.736Z,13.27
2022-10-10T21:44:05.979Z,11.80
2022-10-10T21:46:36.968Z,18.08
2022-10-10T21:49:06.943Z,14.93
2022-10-10T21:51:37.334Z,17.05
2022-10-10T21:54:05.310Z,16.58
2022-10-10T21:56:33.753Z,17.27
2022-10-10T21:59:02.980Z,15.55
2022-10-10T22:01:32.949Z,12.77
2022-10-10T22:04:01.668Z,16.27
2022-10-10T22:06:29.616Z,16.85
2022-10-10T22:09:00.344Z,18.52
2022-10-10T22:11:29.880Z,11.98
2022-10-10T22:13:57.709Z,17.35
2022-10-10T22:16:26.900Z,17.40
2022-10-10T22:18:55.672Z,10.43
2022-10-10T22:21:29.201Z,11.13
2022-10-10T22:23:58.976Z,17.23
2022-10-10T22:26:26.894Z,12.18
2022-10-10T22:28:54.774Z,14.23
2022-10-10T22:31:22.614Z,11.25
2022-10-10T22:33:51.924Z,13.15
2022-10-10T22:36:19.872Z,15.43
2022-10-10T22:38:47.870Z,10.65
2022-10-10T22:41:15.724Z,12.85
2022-10-10T22:43:43.544Z,21.95
2022-10-10T22:46:11.454Z,9.75
2022-10-10T22:48:39.561Z,15.70
2022-10-10T22:51:12.290Z,16.55
2022-10-10T22:53:40.722Z,10.07
2022-10-10T22:56:09.366Z,11.95
2022-10-10T22:58:37.270Z,12.48
2022-10-10T23:01:06.578Z,12.00
2022-10-10T23:03:34.567Z,13.80
2022-10-10T23:06:03.155Z,15.20
2022-10-10T23:08:35.664Z,9.90
2022-10-10T23:11:03.570Z,15.63
2022-10-10T23:13:32.766Z,13.55
2022-10-10T23:16:00.631Z,17.90
2022-10-10T23:18:29.016Z,7.43
2022-10-10T23:20:57.118Z,12.55
2022-10-10T23:23:25.123Z,10.43
2022-10-10T23:25:54.553Z,11.50
2022-10-10T23:28:22.763Z,13.35
2022-10-10T23:30:50.544Z,11.50
2022-10-10T23:33:18.664Z,15.73
2022-10-10T23:35:56.697Z,13.63
2022-10-10T23:38:24.468Z,11.77
2022-10-10T23:40:52.457Z,13.88
2022-10-10T23:43:24.850Z,15.80
2022-10-10T23:45:52.712Z,16.52
2022-10-10T23:48:20.961Z,20.20
2022-10-10T23:50:48.732Z,18.80
2022-10-10T23:53:16.550Z,22.02
2022-10-10T23:55:44.988Z,19.75
2022-10-10T23:58:12.811Z,15.85
